Time;durP1;ratioP1;P1;durP2;ratioP2;P2;SDS_P1;SDS_P2;PMS_P1;PMS_P2;Temp;Humidity;BMP_temperature;BMP_pressure;BME280_temperature;BME280_humidity;BME280_pressure;Samples;Min_cycle;Max_cycle;Signal;HPM_P1;HPM_P2
2023/03/18 00:01:38;;;;;;;11.07;6.23;;;;;;;;;;4390873;32;416519;-90
2023/03/18 00:04:05;;;;;;;14.33;6.40;;;;;;;;;;4416866;32;317075;-90
2023/03/18 00:06:37;;;;;;;13.57;6.90;;;;;;;;;;4408391;32;317124;-90
2023/03/18 00:09:04;;;;;;;21.27;10.73;;;;;;;;;;4420440;32;316508;-90
2023/03/18 00:11:31;;;;;;;19.33;11.83;;;;;;;;;;4410524;32;318283;-90
2023/03/18 00:13:58;;;;;;;20.40;12.37;;;;;;;;;;4421115;32;318224;-90
2023/03/18 00:16:27;;;;;;;17.83;11.17;;;;;;;;;;4409839;32;317541;-92
2023/03/18 00:18:54;;;;;;;20.83;10.10;;;;;;;;;;4419462;32;317684;-90
2023/03/18 00:21:22;;;;;;;17.97;8.97;;;;;;;;;;4408627;32;324471;-89
2023/03/18 00:23:55;;;;;;;13.53;8.17;;;;;;;;;;4420569;32;317214;-90
2023/03/18 00:26:22;;;;;;;12.43;7.43;;;;;;;;;;4408546;32;336632;-90
2023/03/18 00:28:49;;;;;;;12.57;8.50;;;;;;;;;;4420008;32;316574;-90
2023/03/18 00:31:16;;;;;;;13.93;8.67;;;;;;;;;;4410189;32;316838;-89
2023/03/18 00:33:49;;;;;;;17.00;9.73;;;;;;;;;;4420319;32;316313;-90
2023/03/18 00:36:17;;;;;;;18.90;10.10;;;;;;;;;;4409924;32;316423;-90
2023/03/18 00:38:49;;;;;;;23.23;12.50;;;;;;;;;;4419474;32;334921;-90
2023/03/18 00:41:17;;;;;;;21.27;11.80;;;;;;;;;;4409927;32;317606;-90
2023/03/18 00:43:48;;;;;;;26.50;14.30;;;;;;;;;;4420172;32;318253;-91
2023/03/18 00:46:16;;;;;;;29.80;15.37;;;;;;;;;;4408156;32;317707;-90
2023/03/18 00:48:43;;;;;;;27.77;13.80;;;;;;;;;;4419330;32;318398;-90
2023/03/18 00:51:12;;;;;;;24.27;13.63;;;;;;;;;;4418509;32;317434;-90
2023/03/18 00:53:40;;;;;;;26.33;13.97;;;;;;;;;;4407468;32;417590;-91
2023/03/18 00:56:07;;;;;;;23.00;12.60;;;;;;;;;;4419236;32;320895;-90
2023/03/18 00:58:36;;;;;;;23.17;12.97;;;;;;;;;;4408985;32;318305;-91
2023/03/18 01:01:03;;;;;;;27.53;13.17;;;;;;;;;;4419343;32;317680;-91
2023/03/18 01:03:30;;;;;;;22.50;12.67;;;;;;;;;;4410444;32;317371;-91
2023/03/18 01:05:57;;;;;;;23.00;13.70;;;;;;;;;;4420652;32;317745;-91
2023/03/18 01:08:25;;;;;;;25.23;12.50;;;;;;;;;;4411259;32;318148;-91
2023/03/18 01:10:52;;;;;;;23.73;13.73;;;;;;;;;;4421053;32;317572;-91
2023/03/18 01:13:20;;;;;;;27.00;14.43;;;;;;;;;;4411256;32;317478;-92
2023/03/18 01:15:48;;;;;;;24.13;14.53;;;;;;;;;;4419668;32;318121;-91
2023/03/18 01:18:15;;;;;;;24.47;13.50;;;;;;;;;;4409456;32;317534;-91
2023/03/18 01:20:43;;;;;;;28.67;16.07;;;;;;;;;;4417908;32;317736;-91
2023/03/18 01:23:11;;;;;;;37.20;19.00;;;;;;;;;;4416993;32;356267;-91
2023/03/18 01:25:38;;;;;;;33.70;17.67;;;;;;;;;;4405670;32;417696;-91
2023/03/18 01:28:06;;;;;;;32.90;16.77;;;;;;;;;;4419381;32;317892;-90
2023/03/18 01:30:34;;;;;;;26.77;16.00;;;;;;;;;;4410784;32;318545;-91
2023/03/18 01:33:04;;;;;;;28.17;17.67;;;;;;;;;;4419829;32;317799;-91
2023/03/18 01:35:31;;;;;;;30.43;17.87;;;;;;;;;;4409492;32;318122;-91
2023/03/18 01:37:58;;;;;;;30.50;17.33;;;;;;;;;;4418870;32;317461;-91
2023/03/18 01:40:27;;;;;;;32.43;18.20;;;;;;;;;;4409471;32;317740;-91
2023/03/18 01:42:57;;;;;;;39.77;22.17;;;;;;;;;;4420754;32;318274;-92
2023/03/18 01:45:27;;;;;;;48.47;27.20;;;;;;;;;;4411631;32;318260;-91
2023/03/18 01:47:56;;;;;;;51.33;29.27;;;;;;;;;;4420499;32;318139;-91
2023/03/18 01:50:27;;;;;;;57.10;29.17;;;;;;;;;;4411768;32;318399;-91
2023/03/18 01:52:57;;;;;;;58.97;31.37;;;;;;;;;;4421504;32;316013;-92
2023/03/18 01:55:27;;;;;;;58.07;30.50;;;;;;;;;;4410821;32;317442;-91
2023/03/18 01:57:56;;;;;;;62.70;30.97;;;;;;;;;;4419842;32;317542;-90
2023/03/18 02:00:23;;;;;;;52.70;26.33;;;;;;;;;;4410293;32;318197;-91
2023/03/18 02:02:54;;;;;;;59.13;28.97;;;;;;;;;;4405798;32;339095;-91
2023/03/18 02:05:23;;;;;;;53.63;28.00;;;;;;;;;;4398938;32;349050;-90
2023/03/18 02:07:52;;;;;;;59.33;26.00;;;;;;;;;;4419466;32;317585;-91
2023/03/18 02:10:22;;;;;;;45.37;22.83;;;;;;;;;;4408535;32;318253;-91
2023/03/18 02:12:52;;;;;;;29.80;18.40;;;;;;;;;;4417901;32;318323;-91
2023/03/18 02:15:21;;;;;;;40.70;21.83;;;;;;;;;;4408186;32;317647;-91
2023/03/18 02:17:53;;;;;;;39.30;19.03;;;;;;;;;;4419315;32;334821;-90
2023/03/18 02:20:33;;;;;;;36.90;18.10;;;;;;;;;;4409571;32;318259;-91
2023/03/18 02:23:10;;;;;;;44.80;20.23;;;;;;;;;;4423290;32;318296;-91
2023/03/18 02:25:44;;;;;;;33.23;19.60;;;;;;;;;;4412482;32;415842;-90
2023/03/18 02:28:19;;;;;;;44.07;22.03;;;;;;;;;;4415360;32;318293;-86
2023/03/18 02:30:48;;;;;;;46.60;22.43;;;;;;;;;;4422917;32;317981;-91
2023/03/18 02:33:18;;;;;;;35.00;19.83;;;;;;;;;;4411364;32;318387;-90
2023/03/18 02:35:46;;;;;;;34.63;18.00;;;;;;;;;;4422113;32;317430;-90
2023/03/18 02:38:13;;;;;;;35.57;18.27;;;;;;;;;;4409697;32;399529;-90
2023/03/18 02:40:42;;;;;;;34.83;18.73;;;;;;;;;;4421670;32;318554;-91
2023/03/18 02:43:20;;;;;;;41.27;20.30;;;;;;;;;;4421780;32;318190;-90
2023/03/18 02:45:55;;;;;;;39.20;19.40;;;;;;;;;;4409388;32;416014;-90
2023/03/18 02:48:26;;;;;;;31.60;18.80;;;;;;;;;;4410752;32;317746;-90
2023/03/18 02:50:53;;;;;;;32.60;18.87;;;;;;;;;;4422335;32;317312;-91
2023/03/18 02:53:20;;;;;;;29.77;18.20;;;;;;;;;;4410555;32;349948;-91
2023/03/18 02:55:47;;;;;;;25.43;16.40;;;;;;;;;;4422202;32;318104;-92
2023/03/18 02:58:14;;;;;;;32.80;15.53;;;;;;;;;;4409288;32;319390;-91
2023/03/18 03:00:42;;;;;;;28.77;16.37;;;;;;;;;;4422402;32;317533;-91
2023/03/18 03:03:09;;;;;;;25.63;15.20;;;;;;;;;;4420166;32;317834;-90
2023/03/18 03:05:36;;;;;;;24.83;14.83;;;;;;;;;;4407755;32;418494;-91
2023/03/18 03:08:04;;;;;;;28.40;16.83;;;;;;;;;;4421989;32;318564;-90
2023/03/18 03:10:31;;;;;;;42.17;21.77;;;;;;;;;;4412106;32;333223;-91
2023/03/18 03:12:58;;;;;;;39.73;23.67;;;;;;;;;;4422787;32;318046;-90
2023/03/18 03:15:25;;;;;;;47.27;23.07;;;;;;;;;;4411237;32;318593;-90
2023/03/18 03:17:54;;;;;;;41.37;23.37;;;;;;;;;;4421816;32;317436;-90
2023/03/18 03:20:21;;;;;;;49.07;28.07;;;;;;;;;;4411416;32;318277;-91
2023/03/18 03:22:47;;;;;;;48.73;27.07;;;;;;;;;;4421997;32;317453;-90
2023/03/18 03:25:14;;;;;;;47.33;28.47;;;;;;;;;;4411352;32;318319;-90
2023/03/18 03:27:44;;;;;;;54.70;28.67;;;;;;;;;;4420673;32;318289;-90
2023/03/18 03:30:15;;;;;;;54.43;25.17;;;;;;;;;;4421469;32;340829;-90
2023/03/18 03:32:42;;;;;;;46.10;34.43;;;;;;;;;;4409419;32;417135;-90
2023/03/18 03:35:12;;;;;;;47.27;29.93;;;;;;;;;;4423381;32;317865;-90
2023/03/18 03:37:39;;;;;;;45.30;27.83;;;;;;;;;;4409056;32;417151;-90
2023/03/18 03:40:07;;;;;;;46.67;24.00;;;;;;;;;;4422905;32;317748;-90
2023/03/18 03:42:34;;;;;;;39.57;21.60;;;;;;;;;;4411621;32;318508;-90
2023/03/18 03:45:00;;;;;;;44.03;23.70;;;;;;;;;;4421497;32;317654;-90
2023/03/18 03:47:27;;;;;;;31.10;19.33;;;;;;;;;;4409821;32;318543;-90
2023/03/18 03:49:55;;;;;;;45.10;27.77;;;;;;;;;;4419916;32;318556;-90
2023/03/18 03:52:23;;;;;;;60.33;32.13;;;;;;;;;;4410568;32;318037;-90
2023/03/18 03:54:50;;;;;;;58.00;35.53;;;;;;;;;;4421648;32;318366;-90
2023/03/18 03:57:17;;;;;;;61.90;37.63;;;;;;;;;;4411588;32;317507;-90
2023/03/18 03:59:44;;;;;;;56.20;38.53;;;;;;;;;;4419600;32;327867;-90
2023/03/18 04:02:12;;;;;;;51.73;29.07;;;;;;;;;;4420787;32;352567;-91
2023/03/18 04:04:39;;;;;;;63.27;34.60;;;;;;;;;;4412720;32;417934;-90
2023/03/18 04:07:06;;;;;;;54.00;28.07;;;;;;;;;;4425082;32;318512;-90
2023/03/18 04:09:35;;;;;;;57.53;28.30;;;;;;;;;;4415609;32;318054;-90
2023/03/18 04:12:02;;;;;;;45.77;24.37;;;;;;;;;;4421303;32;317721;-90
2023/03/18 04:14:29;;;;;;;47.30;26.97;;;;;;;;;;4410890;32;317456;-89
2023/03/18 04:16:57;;;;;;;46.87;25.60;;;;;;;;;;4420184;32;318426;-90
2023/03/18 04:19:26;;;;;;;46.40;26.50;;;;;;;;;;4411299;32;318149;-90
2023/03/18 04:21:53;;;;;;;42.57;25.80;;;;;;;;;;4422758;32;317631;-89
2023/03/18 04:24:20;;;;;;;55.43;27.87;;;;;;;;;;4414446;32;318013;-90
2023/03/18 04:26:48;;;;;;;45.33;26.77;;;;;;;;;;4424797;32;317465;-90
2023/03/18 04:29:15;;;;;;;49.07;28.67;;;;;;;;;;4411446;32;318139;-90
2023/03/18 04:31:43;;;;;;;92.60;45.27;;;;;;;;;;4424933;32;317340;-89
2023/03/18 04:34:10;;;;;;;96.40;44.53;;;;;;;;;;4430227;32;317175;-89
2023/03/18 04:36:37;;;;;;;98.03;44.87;;;;;;;;;;4414686;32;417421;-89
2023/03/18 04:39:04;;;;;;;81.43;42.90;;;;;;;;;;4425323;32;316889;-90
2023/03/18 04:41:30;;;;;;;82.67;41.23;;;;;;;;;;4413358;32;318513;-90
2023/03/18 04:43:59;;;;;;;63.33;34.17;;;;;;;;;;4422354;32;318434;-90
2023/03/18 04:46:28;;;;;;;43.93;27.13;;;;;;;;;;4413250;32;318228;-90
2023/03/18 04:48:57;;;;;;;45.03;27.83;;;;;;;;;;4421228;32;317979;-90
2023/03/18 04:51:24;;;;;;;64.47;32.53;;;;;;;;;;4412705;32;317633;-88
2023/03/18 04:53:51;;;;;;;69.07;34.53;;;;;;;;;;4432838;32;318405;-89
2023/03/18 04:56:18;;;;;;;68.97;39.27;;;;;;;;;;4424235;32;316969;-89
2023/03/18 04:58:45;;;;;;;74.47;40.40;;;;;;;;;;4434380;32;316851;-89
2023/03/18 05:01:14;;;;;;;53.33;31.40;;;;;;;;;;4423215;32;345780;-90
2023/03/18 05:03:42;;;;;;;53.23;30.30;;;;;;;;;;4433751;32;316251;-89
2023/03/18 05:06:09;;;;;;;56.67;28.20;;;;;;;;;;4433618;32;318570;-89
2023/03/18 05:08:37;;;;;;;53.93;30.47;;;;;;;;;;4419637;32;415717;-90
2023/03/18 05:11:04;;;;;;;46.93;26.00;;;;;;;;;;4432728;32;316885;-90
2023/03/18 05:13:30;;;;;;;46.23;27.83;;;;;;;;;;4422207;32;316700;-89
2023/03/18 05:15:58;;;;;;;43.80;27.23;;;;;;;;;;4430690;32;317833;-90
2023/03/18 05:18:26;;;;;;;46.23;29.13;;;;;;;;;;4421216;32;318550;-89
2023/03/18 05:20:53;;;;;;;52.63;28.97;;;;;;;;;;4433442;32;318342;-89
2023/03/18 05:23:21;;;;;;;62.10;40.17;;;;;;;;;;4414101;32;318283;-89
2023/03/18 05:25:49;;;;;;;71.73;42.63;;;;;;;;;;4419236;32;317942;-90
2023/03/18 05:28:16;;;;;;;76.30;42.27;;;;;;;;;;4408486;32;352510;-89
2023/03/18 05:30:43;;;;;;;58.37;40.13;;;;;;;;;;4419282;32;317497;-90
2023/03/18 05:33:10;;;;;;;57.17;39.87;;;;;;;;;;4419197;32;318316;-90
2023/03/18 05:35:38;;;;;;;65.83;35.70;;;;;;;;;;4405411;32;417304;-89
2023/03/18 05:38:05;;;;;;;67.83;37.80;;;;;;;;;;4418832;32;318227;-89
2023/03/18 05:40:32;;;;;;;68.67;37.70;;;;;;;;;;4408137;32;346072;-89
2023/03/18 05:42:59;;;;;;;66.87;37.43;;;;;;;;;;4419212;32;318476;-89
2023/03/18 05:45:26;;;;;;;73.03;40.80;;;;;;;;;;4409272;32;318390;-90
2023/03/18 05:47:53;;;;;;;74.97;41.37;;;;;;;;;;4419425;32;317680;-90
2023/03/18 05:50:28;;;;;;;74.77;44.93;;;;;;;;;;4409021;32;318402;-89
2023/03/18 05:52:57;;;;;;;85.47;50.97;;;;;;;;;;4417920;32;318248;-89
2023/03/18 05:55:23;;;;;;;69.70;42.80;;;;;;;;;;4408801;32;318085;-91
2023/03/18 05:57:50;;;;;;;60.70;34.43;;;;;;;;;;4417858;32;349730;-89
2023/03/18 06:00:18;;;;;;;71.40;37.13;;;;;;;;;;4410712;32;334545;-89
2023/03/18 06:02:45;;;;;;;70.07;38.67;;;;;;;;;;4412331;32;318390;-89
2023/03/18 06:05:12;;;;;;;64.50;32.97;;;;;;;;;;4402250;32;318250;-86
2023/03/18 06:07:39;;;;;;;56.00;31.37;;;;;;;;;;4421308;32;318108;-89
2023/03/18 06:10:10;;;;;;;49.03;27.67;;;;;;;;;;4422366;32;325505;-91
2023/03/18 06:12:36;;;;;;;42.40;25.70;;;;;;;;;;4410260;32;417338;-92
2023/03/18 06:15:04;;;;;;;52.80;30.37;;;;;;;;;;4421635;32;318357;-90
2023/03/18 06:17:31;;;;;;;41.90;24.67;;;;;;;;;;4412526;32;318115;-89
2023/03/18 06:19:58;;;;;;;40.27;26.00;;;;;;;;;;4422686;32;318311;-90
2023/03/18 06:22:25;;;;;;;50.27;25.43;;;;;;;;;;4412685;32;318698;-91
2023/03/18 06:24:52;;;;;;;41.90;24.53;;;;;;;;;;4425105;32;317616;-90
2023/03/18 06:27:21;;;;;;;37.60;19.53;;;;;;;;;;4411144;32;351206;-89
2023/03/18 06:29:47;;;;;;;26.00;18.10;;;;;;;;;;4426721;32;317506;-90
2023/03/18 06:32:14;;;;;;;36.23;18.60;;;;;;;;;;4412054;32;317476;-90
2023/03/18 06:34:41;;;;;;;23.43;15.50;;;;;;;;;;4421099;32;357611;-89
2023/03/18 06:37:09;;;;;;;21.40;14.20;;;;;;;;;;4421547;32;337810;-90
2023/03/18 06:39:36;;;;;;;18.80;13.60;;;;;;;;;;4412406;32;318452;-89
2023/03/18 06:42:03;;;;;;;29.83;17.57;;;;;;;;;;4422183;32;318601;-90
2023/03/18 06:44:31;;;;;;;20.17;13.57;;;;;;;;;;4413892;32;343447;-90
2023/03/18 06:47:01;;;;;;;38.07;16.17;;;;;;;;;;4420831;32;317540;-89
2023/03/18 06:49:28;;;;;;;25.27;14.57;;;;;;;;;;4411861;32;317644;-90
2023/03/18 06:51:55;;;;;;;21.33;13.83;;;;;;;;;;4422082;32;317552;-90
2023/03/18 06:54:22;;;;;;;30.57;15.13;;;;;;;;;;4411862;32;318320;-90
2023/03/18 06:56:48;;;;;;;23.47;13.37;;;;;;;;;;4421125;32;317514;-90
2023/03/18 06:59:15;;;;;;;28.33;12.50;;;;;;;;;;4410993;32;317772;-90
2023/03/18 07:01:43;;;;;;;20.37;13.20;;;;;;;;;;4422761;32;318298;-90
2023/03/18 07:04:10;;;;;;;20.13;13.63;;;;;;;;;;4421611;32;317408;-91
2023/03/18 07:06:37;;;;;;;26.70;14.70;;;;;;;;;;4408782;32;415837;-91
2023/03/18 07:09:05;;;;;;;234.93;126.30;;;;;;;;;;4420928;32;318352;-90
2023/03/18 07:11:32;;;;;;;116.33;60.23;;;;;;;;;;4411733;32;320191;-91
2023/03/18 07:13:59;;;;;;;34.87;23.53;;;;;;;;;;4422646;32;319295;-89
2023/03/18 07:16:26;;;;;;;28.80;19.43;;;;;;;;;;4413648;32;318085;-90
2023/03/18 07:18:57;;;;;;;33.50;21.47;;;;;;;;;;4424007;32;317719;-89
2023/03/18 07:21:23;;;;;;;26.87;17.70;;;;;;;;;;4413202;32;318388;-90
2023/03/18 07:23:51;;;;;;;31.17;18.10;;;;;;;;;;4422047;32;318395;-90
2023/03/18 07:26:19;;;;;;;31.00;18.57;;;;;;;;;;4411447;32;318279;-90
2023/03/18 07:28:45;;;;;;;28.50;19.70;;;;;;;;;;4422076;32;318257;-89
2023/03/18 07:31:12;;;;;;;37.77;22.87;;;;;;;;;;4410659;32;318477;-89
2023/03/18 07:33:40;;;;;;;31.93;22.13;;;;;;;;;;4421946;32;318497;-90
2023/03/18 07:36:08;;;;;;;33.67;21.23;;;;;;;;;;4423327;32;317410;-88
2023/03/18 07:38:35;;;;;;;36.90;20.83;;;;;;;;;;4414551;32;344428;-89
2023/03/18 07:41:02;;;;;;;40.47;22.47;;;;;;;;;;4424309;32;317860;-89
2023/03/18 07:43:29;;;;;;;31.57;20.10;;;;;;;;;;4413702;32;318208;-90
2023/03/18 07:45:55;;;;;;;33.67;19.90;;;;;;;;;;4421420;32;318561;-89
2023/03/18 07:48:22;;;;;;;32.77;21.80;;;;;;;;;;4410198;32;317793;-88
2023/03/18 07:50:49;;;;;;;29.63;20.40;;;;;;;;;;4421300;32;317621;-89
2023/03/18 07:53:17;;;;;;;30.63;20.43;;;;;;;;;;4411159;32;317587;-91
2023/03/18 07:55:45;;;;;;;27.30;19.80;;;;;;;;;;4420886;32;318255;-92
2023/03/18 07:58:12;;;;;;;32.00;22.73;;;;;;;;;;4415057;32;317792;-85
2023/03/18 08:00:39;;;;;;;25.57;18.70;;;;;;;;;;4421364;32;318230;-91
2023/03/18 08:03:06;;;;;;;27.57;18.73;;;;;;;;;;4420834;32;317967;-91
2023/03/18 08:05:33;;;;;;;201.10;112.80;;;;;;;;;;4410753;32;317626;-90
2023/03/18 08:08:01;;;;;;;25.80;15.63;;;;;;;;;;4420032;32;320397;-91
2023/03/18 08:10:29;;;;;;;13.30;9.87;;;;;;;;;;4409459;32;318489;-88
2023/03/18 08:12:56;;;;;;;16.40;10.63;;;;;;;;;;4420741;32;316495;-88
2023/03/18 08:15:24;;;;;;;19.10;13.37;;;;;;;;;;4410453;32;319281;-88
2023/03/18 08:17:52;;;;;;;17.57;12.97;;;;;;;;;;4419406;32;355344;-91
2023/03/18 08:20:20;;;;;;;25.43;14.97;;;;;;;;;;4412522;32;318060;-89
2023/03/18 08:22:47;;;;;;;16.47;10.57;;;;;;;;;;4419133;32;317591;-89
2023/03/18 08:25:14;;;;;;;12.70;9.80;;;;;;;;;;4410044;32;317615;-91
2023/03/18 08:27:42;;;;;;;24.67;15.47;;;;;;;;;;4418994;32;316748;-89
2023/03/18 08:30:10;;;;;;;13.47;10.53;;;;;;;;;;4420181;32;318115;-90
2023/03/18 08:32:37;;;;;;;33.93;22.30;;;;;;;;;;4406965;32;417247;-89
2023/03/18 08:35:05;;;;;;;12.40;9.47;;;;;;;;;;4421244;32;318636;-88
2023/03/18 08:37:32;;;;;;;24.23;14.77;;;;;;;;;;4410153;32;317342;-89
2023/03/18 08:39:59;;;;;;;6.23;5.40;;;;;;;;;;4420365;32;319214;-89
2023/03/18 08:42:26;;;;;;;49.40;31.93;;;;;;;;;;4409087;32;317072;-89
2023/03/18 08:44:55;;;;;;;13.30;9.33;;;;;;;;;;4420384;32;318437;-92
2023/03/18 08:47:23;;;;;;;9.50;6.80;;;;;;;;;;4410311;32;318282;-90
2023/03/18 08:49:50;;;;;;;8.50;5.70;;;;;;;;;;4419362;32;316508;-89
2023/03/18 08:52:17;;;;;;;8.07;5.47;;;;;;;;;;4409319;32;344323;-88
2023/03/18 08:54:44;;;;;;;12.33;7.50;;;;;;;;;;4420680;32;316848;-90
2023/03/18 08:57:11;;;;;;;7.33;4.60;;;;;;;;;;4420173;32;318249;-90
2023/03/18 08:59:38;;;;;;;11.70;9.13;;;;;;;;;;4407688;32;414875;-89
2023/03/18 09:02:07;;;;;;;12.03;7.20;;;;;;;;;;4419856;32;318100;-90
2023/03/18 09:04:34;;;;;;;6.43;4.83;;;;;;;;;;4409288;32;318143;-90
2023/03/18 09:07:02;;;;;;;9.83;3.27;;;;;;;;;;4418034;32;350168;-88
2023/03/18 09:09:28;;;;;;;4.63;3.47;;;;;;;;;;4409482;32;317185;-91
2023/03/18 09:11:55;;;;;;;3.27;2.70;;;;;;;;;;4419836;32;324840;-89
2023/03/18 09:14:22;;;;;;;5.57;3.50;;;;;;;;;;4410373;32;317148;-89
2023/03/18 09:16:49;;;;;;;4.40;3.20;;;;;;;;;;4419902;32;317700;-89
2023/03/18 09:19:17;;;;;;;5.17;3.80;;;;;;;;;;4409021;32;317136;-89
2023/03/18 09:21:44;;;;;;;2.63;2.20;;;;;;;;;;4419939;32;317314;-89
2023/03/18 09:24:10;;;;;;;3.63;2.90;;;;;;;;;;4419016;32;316461;-89
2023/03/18 09:26:38;;;;;;;3.00;2.70;;;;;;;;;;4406730;32;416432;-89
2023/03/18 09:29:05;;;;;;;2.90;2.50;;;;;;;;;;4420157;32;317422;-90
2023/03/18 09:31:32;;;;;;;3.83;2.73;;;;;;;;;;4409792;32;317166;-90
2023/03/18 09:33:59;;;;;;;5.00;3.50;;;;;;;;;;4420957;32;316689;-88
2023/03/18 09:36:28;;;;;;;4.13;3.30;;;;;;;;;;4409723;32;316776;-91
2023/03/18 09:38:55;;;;;;;4.40;2.83;;;;;;;;;;4420323;32;335866;-90
2023/03/18 09:41:37;;;;;;;2.80;2.30;;;;;;;;;;4411612;32;316471;-88
2023/03/18 09:44:13;;;;;;;5.30;2.57;;;;;;;;;;4422562;32;317125;-88
2023/03/18 09:46:57;;;;;;;2.83;2.13;;;;;;;;;;4410565;32;415876;-88
2023/03/18 09:49:39;;;;;;;4.47;3.10;;;;;;;;;;4413368;32;317208;-89
2023/03/18 09:52:18;;;;;;;3.83;2.83;;;;;;;;;;4421756;32;316338;-89
2023/03/18 09:54:51;;;;;;;3.70;3.07;;;;;;;;;;4402217;32;416946;-89
2023/03/18 09:57:24;;;;;;;3.23;2.63;;;;;;;;;;4412536;32;317261;-89
2023/03/18 09:59:54;;;;;;;4.50;2.63;;;;;;;;;;4421479;32;317490;-91
2023/03/18 10:02:26;;;;;;;3.20;2.80;;;;;;;;;;4411596;32;316417;-89
2023/03/18 10:04:57;;;;;;;3.17;2.87;;;;;;;;;;4422620;32;317504;-89
2023/03/18 10:07:34;;;;;;;3.40;2.83;;;;;;;;;;4399333;32;316951;-89
2023/03/18 10:10:06;;;;;;;3.30;2.60;;;;;;;;;;4421363;32;316619;-88
2023/03/18 10:12:35;;;;;;;6.53;2.43;;;;;;;;;;4411415;32;346437;-89
2023/03/18 10:15:13;;;;;;;7.20;3.60;;;;;;;;;;4422250;32;316365;-90
2023/03/18 10:17:44;;;;;;;5.37;4.40;;;;;;;;;;4409226;32;416502;-88
2023/03/18 10:20:19;;;;;;;6.13;4.33;;;;;;;;;;4421024;32;316384;-90
2023/03/18 10:23:14;;;;;;;3.93;3.03;;;;;;;;;;4407872;32;419522;-90
2023/03/18 10:25:47;;;;;;;6.70;4.70;;;;;;;;;;4401938;32;415695;-91
2023/03/18 10:28:36;;;;;;;3.43;2.73;;;;;;;;;;4412418;32;316527;-90
2023/03/18 10:31:19;;;;;;;4.43;3.70;;;;;;;;;;4422788;32;316439;-91
2023/03/18 10:33:54;;;;;;;4.30;2.33;;;;;;;;;;4409128;32;417471;-90
2023/03/18 10:36:25;;;;;;;4.60;3.27;;;;;;;;;;4411712;32;316544;-90
2023/03/18 10:38:55;;;;;;;5.00;3.83;;;;;;;;;;4422071;32;317270;-90
2023/03/18 10:41:24;;;;;;;6.10;4.93;;;;;;;;;;4412060;32;317705;-89
2023/03/18 10:43:54;;;;;;;9.77;5.13;;;;;;;;;;4421612;32;317519;-90
2023/03/18 10:46:22;;;;;;;14.60;6.90;;;;;;;;;;4411874;32;317166;-90
2023/03/18 10:48:51;;;;;;;15.43;5.70;;;;;;;;;;4421179;32;317549;-89
2023/03/18 10:51:24;;;;;;;12.00;7.60;;;;;;;;;;4383238;32;318007;-90
2023/03/18 10:53:58;;;;;;;13.40;5.27;;;;;;;;;;4421323;32;318391;-89
2023/03/18 10:56:26;;;;;;;10.43;3.93;;;;;;;;;;4412600;32;317395;-90
2023/03/18 10:58:53;;;;;;;11.83;7.07;;;;;;;;;;4424086;32;318727;-89
2023/03/18 11:01:23;;;;;;;11.73;6.60;;;;;;;;;;4410744;32;318210;-89
2023/03/18 11:03:54;;;;;;;8.83;5.00;;;;;;;;;;4422226;32;317319;-89
2023/03/18 11:06:26;;;;;;;7.00;5.30;;;;;;;;;;4410748;32;317205;-90
2023/03/18 11:09:07;;;;;;;15.17;8.73;;;;;;;;;;4420961;32;317257;-91
2023/03/18 11:11:35;;;;;;;9.83;6.27;;;;;;;;;;4410890;32;318556;-89
2023/03/18 11:14:05;;;;;;;15.10;9.50;;;;;;;;;;4420140;32;317134;-89
2023/03/18 11:16:39;;;;;;;10.15;7.12;;;;;;;;;;4411043;32;320671;-90
2023/03/18 11:19:26;;;;;;;13.20;7.00;;;;;;;;;;4420208;32;318420;-89
2023/03/18 11:22:03;;;;;;;7.53;4.90;;;;;;;;;;4407069;32;416618;-89
2023/03/18 11:24:41;;;;;;;14.60;9.43;;;;;;;;;;4410048;32;316465;-89
2023/03/18 11:27:27;;;;;;;14.60;7.83;;;;;;;;;;4420643;32;317509;-89
2023/03/18 11:29:57;;;;;;;11.00;4.87;;;;;;;;;;4407857;32;419256;-92
2023/03/18 11:32:26;;;;;;;8.80;5.73;;;;;;;;;;4410682;32;317851;-91
2023/03/18 11:34:57;;;;;;;8.37;5.00;;;;;;;;;;4420762;32;317776;-89
2023/03/18 11:37:30;;;;;;;9.33;6.10;;;;;;;;;;4411195;32;316260;-88
2023/03/18 11:40:18;;;;;;;8.57;5.33;;;;;;;;;;4420933;32;316496;-91
2023/03/18 11:42:46;;;;;;;7.83;5.60;;;;;;;;;;4407157;32;417368;-88
2023/03/18 11:45:30;;;;;;;5.90;3.93;;;;;;;;;;4411376;32;317239;-88
2023/03/18 11:47:58;;;;;;;4.77;4.20;;;;;;;;;;4421517;32;316530;-89
2023/03/18 11:50:30;;;;;;;9.27;4.43;;;;;;;;;;4410206;32;316396;-89
2023/03/18 11:53:00;;;;;;;15.67;4.67;;;;;;;;;;4420776;32;316601;-92
2023/03/18 11:55:36;;;;;;;9.27;4.87;;;;;;;;;;4410907;32;317964;-89
2023/03/18 11:58:26;;;;;;;7.50;5.07;;;;;;;;;;4421102;32;317032;-89
2023/03/18 12:00:58;;;;;;;4.93;3.43;;;;;;;;;;4407846;32;417367;-89
2023/03/18 12:03:52;;;;;;;8.93;5.67;;;;;;;;;;4409704;32;316675;-89
2023/03/18 12:06:21;;;;;;;10.03;7.10;;;;;;;;;;4409288;32;317194;-89
2023/03/18 12:09:00;;;;;;;21.97;16.47;;;;;;;;;;4418939;32;317320;-89
2023/03/18 12:11:45;;;;;;;7.33;5.80;;;;;;;;;;4409714;32;318962;-89
2023/03/18 12:14:20;;;;;;;7.80;3.87;;;;;;;;;;4410785;32;317257;-88
2023/03/18 12:16:58;;;;;;;11.83;6.63;;;;;;;;;;4419643;32;337641;-89
2023/03/18 12:20:06;;;;;;;18.60;7.97;;;;;;;;;;4409173;32;318248;-88
2023/03/18 12:22:53;;;;;;;10.40;7.77;;;;;;;;;;4372717;32;318511;-89
2023/03/18 12:25:32;;;;;;;10.87;7.93;;;;;;;;;;4409899;32;317995;-88
2023/03/18 12:28:06;;;;;;;13.00;9.00;;;;;;;;;;4419939;32;318085;-89
2023/03/18 12:30:49;;;;;;;12.33;8.10;;;;;;;;;;4410578;32;317724;-89
2023/03/18 12:33:32;;;;;;;13.37;8.03;;;;;;;;;;4410501;32;317554;-90
2023/03/18 12:36:08;;;;;;;10.80;7.50;;;;;;;;;;4420544;32;317529;-89
2023/03/18 12:39:18;;;;;;;11.03;7.37;;;;;;;;;;4410046;32;318141;-89
2023/03/18 12:41:58;;;;;;;22.60;7.40;;;;;;;;;;4407542;32;418317;-92
2023/03/18 12:44:37;;;;;;;10.63;8.40;;;;;;;;;;4410060;32;318204;-88
2023/03/18 12:47:09;;;;;;;12.83;9.53;;;;;;;;;;4419921;32;317619;-89
2023/03/18 12:49:39;;;;;;;9.00;7.20;;;;;;;;;;4410589;32;356854;-89
2023/03/18 12:52:09;;;;;;;13.17;9.80;;;;;;;;;;4420683;32;317485;-91
2023/03/18 12:54:41;;;;;;;12.37;8.07;;;;;;;;;;4411392;32;317556;-89
2023/03/18 12:57:15;;;;;;;12.43;9.33;;;;;;;;;;4421785;32;318100;-90
2023/03/18 12:59:48;;;;;;;10.03;7.37;;;;;;;;;;4410685;32;417634;-91
2023/03/18 13:02:42;;;;;;;8.43;6.40;;;;;;;;;;4408787;32;353966;-89
2023/03/18 13:05:23;;;;;;;11.77;6.97;;;;;;;;;;4402109;32;316454;-89
2023/03/18 13:07:59;;;;;;;16.30;10.00;;;;;;;;;;4405902;32;417985;-90
2023/03/18 13:10:30;;;;;;;11.63;7.97;;;;;;;;;;4409380;32;319196;-91
2023/03/18 13:12:59;;;;;;;12.87;6.50;;;;;;;;;;4418441;32;331716;-89
2023/03/18 13:15:32;;;;;;;16.00;9.80;;;;;;;;;;4409626;32;317342;-91
2023/03/18 13:18:06;;;;;;;10.77;8.17;;;;;;;;;;4419849;32;317251;-92
2023/03/18 13:20:36;;;;;;;15.07;7.73;;;;;;;;;;4410002;32;318197;-89
2023/03/18 13:23:16;;;;;;;18.70;7.80;;;;;;;;;;4420878;32;317231;-90
2023/03/18 13:25:55;;;;;;;16.40;7.23;;;;;;;;;;4407791;32;417633;-92
2023/03/18 13:28:37;;;;;;;12.03;6.97;;;;;;;;;;4408735;32;318104;-92
2023/03/18 13:31:14;;;;;;;8.97;5.57;;;;;;;;;;4417718;32;318313;-89
2023/03/18 13:34:05;;;;;;;10.43;7.43;;;;;;;;;;4406106;32;417228;-92
2023/03/18 13:37:07;;;;;;;20.23;11.20;;;;;;;;;;4408725;32;318325;-92
2023/03/18 13:39:53;;;;;;;18.87;12.40;;;;;;;;;;4409272;32;325573;-92
2023/03/18 13:42:25;;;;;;;12.03;7.20;;;;;;;;;;4407202;32;335380;-89
2023/03/18 13:45:00;;;;;;;10.73;6.63;;;;;;;;;;4419596;32;318356;-89
2023/03/18 13:47:32;;;;;;;9.70;6.80;;;;;;;;;;4409692;32;318074;-90
2023/03/18 13:50:01;;;;;;;10.27;8.33;;;;;;;;;;4417229;32;355709;-89
2023/03/18 13:52:35;;;;;;;8.77;6.07;;;;;;;;;;4409493;32;318452;-91
2023/03/18 13:55:07;;;;;;;7.53;4.50;;;;;;;;;;4419211;32;316573;-89
2023/03/18 13:57:46;;;;;;;11.83;4.33;;;;;;;;;;4409335;32;317325;-90
2023/03/18 14:00:27;;;;;;;5.10;4.50;;;;;;;;;;4409438;32;318565;-88
2023/03/18 14:03:14;;;;;;;7.87;5.10;;;;;;;;;;4419760;32;316466;-92
2023/03/18 14:05:41;;;;;;;18.33;11.10;;;;;;;;;;4406826;32;408666;-91
2023/03/18 14:08:34;;;;;;;14.20;8.90;;;;;;;;;;4419367;32;318685;-92
2023/03/18 14:11:48;;;;;;;7.23;5.53;;;;;;;;;;4407011;32;417780;-91
2023/03/18 14:14:57;;;;;;;16.30;9.30;;;;;;;;;;4407140;32;414740;-93
2023/03/18 14:17:41;;;;;;;7.40;5.83;;;;;;;;;;4347553;32;318430;-91
2023/03/18 14:20:23;;;;;;;11.65;8.25;;;;;;;;;;4357735;32;317196;-91
2023/03/18 14:22:51;;;;;;;9.53;5.83;;;;;;;;;;4388924;32;418249;-90
2023/03/18 14:25:41;;;;;;;7.67;5.37;;;;;;;;;;4410899;32;317050;-90
2023/03/18 14:28:25;;;;;;;15.63;9.05;;;;;;;;;;4420601;32;317230;-94
2023/03/18 14:31:14;;;;;;;16.23;10.30;;;;;;;;;;4411813;32;418736;-91
2023/03/18 14:34:32;;;;;;;22.50;11.87;;;;;;;;;;4410325;32;421072;-91